Alexander, Illinois
Current Conditions -  °F | °C
As of 10:35 PM on Wednesday 26 Nov 2014 (Local Time) from KIJX Reporting Station
Unknown Precip Unknown Precip  
Wind Chill: 21°   Ceiling: 600
Heat Index: 30°   Visibility: 5mi
Dew Point: 27°   Wind: 10mph
Humidity: 89%   Direction: 10°N
Pressure: 30.21"   Gusts: NA
Location:  39.72°N, 90.04°W
Report Text: KIJX 270435Z AUTO 01009KT 5SM UP BKN006 BKN012 OVC028 M01/M03 A3021 RMK AO2 T10101026
Loading
Personal Weather Stations






























Interactive Weather Map New forecast layout! Learn more

10-Day Weather Forecast

Advertisements
Track Severe Weather on mobile